メインページ
METAR-TAF:

METAR-TAF

空港 :

Sanandaj, イラン

緯度: 35-20N, 経度: 047-00E, 海抜: 1373m

現時点の気象観測

当レポートは10分前の07:00(UTC)に作成
南/南東の風 4kt
気温 6°C
湿度 87%
気圧 1013 hPa
視程10km以上
高度2500ftの雲はほとんどない
高度3000ftの雲はほとんどない, 積乱雲.
高度4000ftの雲は散在している
高度8000ftの曇り

METAR: OICS 240700Z 16004KT 9999 FEW025 FEW030CB SCT040 OVC080 06/04 Q1013 A2992

時間: 11:40 (07:10 UTC)


TAF: 見つかりません

4,000以上の空港の気象観測と天気予報(METAR報とTAF報)

利用可能な観測所は地図上に黄色い丸と赤い丸で示す。

丸の上にカーソルを重ねると観測所名を参照できる。

次にクリックすると気象観測と天気予報を参照できる。

マップの切り替え:黒色「×」印の緑ボタンをクリックして拡大、「-」印の緑ボタンをクリックして縮小、緑色の三角印をクリックして隣りの地図に切り替え


METAR-TAF: